Chama, Colorado
Current Conditions -  °F | °C
As of 12:09 PM on Tuesday 21 Oct 2014 (Local Time) from KVTP Reporting Station
Scattered Clouds Scattered Clouds  
Wind Chill: 50°   Ceiling: Unl
Heat Index: 50°   Visibility: 10mi
Dew Point: 34°   Wind: 10mph
Humidity: 54%   Direction: 190°S
Pressure: 30.31"   Gusts: 20mph
Location:  37.16°N, 105.38°W
Report Text: KVTP 211809Z AUTO 19009G17KT 150V220 10SM SCT023 10/01 A3031 RMK AO2
Loading
Personal Weather Stations






























Interactive Weather Map
Tropical Storm Tracking
New forecast layout! Learn more

10-Day Weather Forecast

Advertisements
Track Severe Weather on mobile